Terminal Aerodrome Forecast
Issued by NWS

Home | Current Version | Previous Version | Text Only | Print | Product List | Glossary On
Versions: 1 2 3 4 5 6 7 8 9 10 11 12
000
FTUS42 TJSJ 250525
TAFJMZ
TAF
TJMZ 250525Z 2506/2606 00000KT P6SM FEW060
     FM251630 29010KT P6SM SCT060
     FM252300 00000KT P6SM FEW060
      AMD NOT SKED=

USA.gov is the U.S. government's official web portal to all federal, state and local government web resources and services.